Terminal Aerodrome Forecast
Issued by NWS

Home | Current Version | Previous Version | Text Only | Print | Product List | Glossary Off
Versions: 1 2 3 4 5 6 7 8 9 10 11 12 13

228
FTUS42 KMHX 211738
TAFOAJ
TAF
KOAJ 211738Z 2118/2218 26007KT P6SM FEW250
     FM220400 VRB03KT P6SM -SHRA BKN150
     FM220700 03005KT P6SM -SHRA OVC015
      TEMPO 2207/2210 BKN008
     FM221200 01010KT P6SM OVC015
     FM221400 01012KT P6SM BKN045
     FM221700 01012KT P6SM SCT120
      AMD LTD TO CLD VIS AND WIND=

USA.gov is the U.S. government's official web portal to all federal, state and local government web resources and services.